Time;durP1;ratioP1;P1;durP2;ratioP2;P2;SDS_P1;SDS_P2;PMS_P1;PMS_P2;Temp;Humidity;BMP_temperature;BMP_pressure;BME280_temperature;BME280_humidity;BME280_pressure;Samples;Min_cycle;Max_cycle;Signal;HPM_P1;HPM_P2
2022/07/17 00:00:42;;;;;;;;;1.00;1.00;;;;;22.14;38.67;101607.03;4994947;28;45386;-75
2022/07/17 00:03:11;;;;;;;;;4.00;2.00;;;;;22.12;38.71;101595.50;4995914;28;45488;-76
2022/07/17 00:05:36;;;;;;;;;5.00;5.00;;;;;22.09;38.93;101598.34;4993628;28;45606;-76
2022/07/17 00:08:02;;;;;;;;;2.00;2.00;;;;;22.10;38.94;101618.06;4996300;28;46198;-76
2022/07/17 00:10:27;;;;;;;;;1.00;1.00;;;;;22.08;39.20;101607.38;4994318;28;45369;-76
2022/07/17 00:12:53;;;;;;;;;2.75;2.00;;;;;22.05;39.28;101599.44;4960211;28;45370;-76
2022/07/17 00:15:19;;;;;;;;;1.00;0.00;;;;;22.05;39.02;101598.59;4981658;28;45549;-76
2022/07/17 00:17:45;;;;;;;;;3.75;2.00;;;;;22.00;39.15;101604.19;4995334;28;45331;-76
2022/07/17 00:20:11;;;;;;;;;1.75;1.75;;;;;21.96;39.37;101597.25;4989858;28;45397;-76
2022/07/17 00:22:37;;;;;;;;;3.00;1.00;;;;;21.93;39.40;101597.41;4993711;28;45424;-76
2022/07/17 00:25:03;;;;;;;;;3.00;2.00;;;;;21.90;39.29;101602.94;4996071;28;45393;-76
2022/07/17 00:27:28;;;;;;;;;0.75;0.00;;;;;21.84;39.36;101598.75;4995425;28;45388;-76
2022/07/17 00:29:54;;;;;;;;;2.00;1.00;;;;;21.79;39.45;101584.66;4995116;28;45528;-75
2022/07/17 00:32:19;;;;;;;;;2.00;2.00;;;;;21.80;39.50;101597.16;4995523;28;45427;-76
2022/07/17 00:34:45;;;;;;;;;2.00;2.00;;;;;21.82;39.68;101614.09;4995794;28;45405;-77
2022/07/17 00:37:10;;;;;;;;;1.50;1.50;;;;;21.73;39.59;101599.28;4978087;28;46262;-75
2022/07/17 00:39:37;;;;;;;;;4.00;4.00;;;;;21.70;39.79;101596.75;4994965;28;45412;-75
2022/07/17 00:42:02;;;;;;;;;0.75;0.75;;;;;21.72;39.82;101586.78;4995980;28;45258;-76
2022/07/17 00:44:28;;;;;;;;;1.25;1.00;;;;;21.74;39.93;101590.28;4995904;28;45378;-76
2022/07/17 00:46:54;;;;;;;;;1.50;1.50;;;;;21.74;39.84;101587.59;4996895;28;46081;-75
2022/07/17 00:49:19;;;;;;;;;1.50;1.50;;;;;21.70;40.00;101580.63;4978867;28;45428;-76
2022/07/17 00:51:45;;;;;;;;;2.00;2.00;;;;;21.73;39.58;101596.59;4995585;28;45488;-76
2022/07/17 00:54:13;;;;;;;;;1.50;1.50;;;;;21.71;39.71;101592.25;4995152;28;45364;-76
2022/07/17 00:56:40;;;;;;;;;3.50;1.50;;;;;21.67;39.77;101591.53;4994876;28;46307;-76
2022/07/17 00:59:07;;;;;;;;;1.00;1.00;;;;;21.72;39.96;101602.91;4986914;28;45522;-76
2022/07/17 01:01:32;;;;;;;;;1.00;1.00;;;;;21.68;40.07;101593.25;4976637;28;45342;-76
2022/07/17 01:03:58;;;;;;;;;0.75;0.75;;;;;21.61;39.88;101598.09;4975695;28;45293;-77
2022/07/17 01:06:23;;;;;;;;;2.00;2.00;;;;;21.64;40.01;101610.53;4978527;28;45477;-76
2022/07/17 01:08:50;;;;;;;;;2.00;0.25;;;;;21.63;40.09;101606.94;4994713;28;45375;-76
2022/07/17 01:11:15;;;;;;;;;2.50;1.25;;;;;21.60;40.14;101607.09;4994673;28;45332;-76
2022/07/17 01:13:42;;;;;;;;;1.50;1.00;;;;;21.46;40.21;101578.16;4992706;28;45557;-77
2022/07/17 01:16:08;;;;;;;;;1.00;1.00;;;;;21.51;40.05;101598.63;4972997;28;45495;-77
2022/07/17 01:18:35;;;;;;;;;5.50;0.00;;;;;21.56;40.07;101602.84;4994521;28;45450;-76
2022/07/17 01:21:07;;;;;;;;;3.00;2.00;;;;;21.47;40.49;101596.06;4991432;28;45386;-77
2022/07/17 01:23:33;;;;;;;;;4.00;2.50;;;;;21.45;40.20;101603.34;4993250;28;45463;-75
2022/07/17 01:25:59;;;;;;;;;1.75;1.75;;;;;21.44;40.41;101606.13;4989634;28;46299;-78
2022/07/17 01:28:25;;;;;;;;;4.50;4.50;;;;;21.42;40.55;101606.19;4975864;28;45466;-76
2022/07/17 01:30:51;;;;;;;;;5.00;4.00;;;;;21.36;40.75;101609.16;4958240;28;45458;-76
2022/07/17 01:33:17;;;;;;;;;2.00;2.00;;;;;21.32;40.78;101604.88;4995634;28;45355;-76
2022/07/17 01:35:42;;;;;;;;;1.00;1.00;;;;;21.32;40.69;101607.56;4994076;28;46081;-76
2022/07/17 01:38:08;;;;;;;;;1.00;0.00;;;;;21.34;40.68;101605.66;4977000;28;45344;-76
2022/07/17 01:40:34;;;;;;;;;0.00;0.00;;;;;21.34;40.71;101604.81;4982677;28;45368;-75
2022/07/17 01:42:59;;;;;;;;;1.50;1.50;;;;;21.33;40.64;101598.53;4981878;28;45352;-75
2022/07/17 01:45:26;;;;;;;;;2.75;2.75;;;;;21.25;40.62;101587.31;4983569;28;45665;-77
2022/07/17 01:47:51;;;;;;;;;5.75;3.00;;;;;21.22;40.88;101588.31;4997775;28;45431;-76
2022/07/17 01:50:17;;;;;;;;;2.00;2.00;;;;;21.21;40.68;101594.66;4994206;28;45515;-76
2022/07/17 01:52:44;;;;;;;;;2.25;2.25;;;;;21.16;40.83;101587.75;4993490;28;45460;-76
2022/07/17 01:55:12;;;;;;;;;1.00;1.00;;;;;21.09;41.09;101580.00;4994993;28;47587;-76
2022/07/17 01:57:37;;;;;;;;;5.50;3.00;;;;;21.06;40.98;101580.16;4994470;28;46228;-75
2022/07/17 02:00:06;;;;;;;;;1.75;1.75;;;;;21.11;41.02;101586.16;4994446;28;45400;-75
2022/07/17 02:02:31;;;;;;;;;2.00;2.00;;;;;21.07;40.95;101589.06;4973228;28;45551;-77
2022/07/17 02:04:56;;;;;;;;;2.50;1.50;;;;;21.03;41.03;101585.66;4974935;28;46266;-76
2022/07/17 02:07:22;;;;;;;;;3.00;3.00;;;;;20.91;40.93;101571.00;4986532;28;45571;-76
2022/07/17 02:09:47;;;;;;;;;1.00;0.00;;;;;20.99;41.47;101589.44;4977073;28;45622;-75
2022/07/17 02:12:13;;;;;;;;;1.50;0.75;;;;;21.00;41.20;101583.13;4994709;28;46681;-75
2022/07/17 02:14:38;;;;;;;;;4.75;4.75;;;;;20.91;41.23;101580.88;4994049;28;45939;-75
2022/07/17 02:17:03;;;;;;;;;2.75;1.75;;;;;20.86;41.84;101578.41;4993851;28;45538;-78
2022/07/17 02:19:29;;;;;;;;;4.00;2.00;;;;;20.70;41.75;101540.66;4988807;28;45551;-75
2022/07/17 02:21:54;;;;;;;;;5.00;3.25;;;;;20.88;41.29;101578.34;4960797;28;45420;-77
2022/07/17 02:24:20;;;;;;;;;0.75;0.75;;;;;20.86;41.37;101580.22;4976550;28;46115;-75
2022/07/17 02:26:45;;;;;;;;;1.00;1.00;;;;;20.83;41.42;101580.38;4965053;28;45457;-76
2022/07/17 02:29:11;;;;;;;;;1.00;0.00;;;;;20.79;41.35;101570.72;4995967;28;45492;-76
2022/07/17 02:31:36;;;;;;;;;0.50;0.25;;;;;20.84;41.49;101577.59;4984661;28;45588;-75
2022/07/17 02:34:02;;;;;;;;;1.75;1.00;;;;;20.67;41.41;101551.53;4978120;28;46246;-77
2022/07/17 02:36:27;;;;;;;;;1.75;1.75;;;;;20.82;41.50;101570.59;4993253;28;45435;-76
2022/07/17 02:38:53;;;;;;;;;1.75;1.75;;;;;20.68;41.68;101561.34;4998456;28;45452;-75
2022/07/17 02:41:19;;;;;;;;;2.25;1.25;;;;;20.76;41.28;101575.28;4998272;28;45479;-77
2022/07/17 02:43:44;;;;;;;;;1.00;1.00;;;;;20.75;41.53;101573.53;4997455;28;45780;-76
2022/07/17 02:46:10;;;;;;;;;0.50;0.50;;;;;20.73;41.36;101572.75;4998033;28;45518;-76
2022/07/17 02:48:35;;;;;;;;;1.00;1.00;;;;;20.67;41.72;101573.03;4997069;28;45414;-77
2022/07/17 02:51:02;;;;;;;;;0.00;0.00;;;;;20.55;41.76;101566.38;4988233;28;45441;-77
2022/07/17 02:53:27;;;;;;;;;2.75;1.25;;;;;20.57;41.68;101572.56;4992347;28;46497;-77
2022/07/17 02:55:52;;;;;;;;;3.00;2.00;;;;;20.57;42.13;101571.69;4973516;28;45592;-76
2022/07/17 02:58:18;;;;;;;;;0.00;0.00;;;;;20.40;41.79;101551.84;4984184;28;45893;-77
2022/07/17 03:00:45;;;;;;;;;4.50;1.00;;;;;20.49;41.98;101571.16;4978880;28;45446;-77
2022/07/17 03:03:10;;;;;;;;;0.50;0.50;;;;;20.41;42.12;101556.28;4978786;28;46284;-76
2022/07/17 03:05:35;;;;;;;;;0.50;0.50;;;;;20.29;42.00;101551.47;4977037;28;45543;-77
2022/07/17 03:08:02;;;;;;;;;1.00;1.00;;;;;20.35;42.36;101567.31;4978188;28;45369;-75
2022/07/17 03:10:27;;;;;;;;;1.25;1.25;;;;;20.42;42.53;101576.81;4978874;28;45317;-75
2022/07/17 03:12:53;;;;;;;;;1.00;1.00;;;;;20.36;42.05;101573.53;4978626;28;45426;-76
2022/07/17 03:15:18;;;;;;;;;2.25;1.00;;;;;20.36;42.00;101571.75;4996901;28;45532;-75
2022/07/17 03:17:44;;;;;;;;;1.00;1.00;;;;;20.38;42.40;101579.72;4998314;28;45530;-76
2022/07/17 03:20:10;;;;;;;;;0.00;0.00;;;;;20.39;42.27;101574.28;4985102;28;45673;-75
2022/07/17 03:22:35;;;;;;;;;1.00;1.00;;;;;20.24;41.86;101549.00;4989404;28;45473;-76
2022/07/17 03:25:01;;;;;;;;;0.00;0.00;;;;;20.34;42.76;101576.28;4997274;28;45642;-76
2022/07/17 03:27:26;;;;;;;;;1.00;1.00;;;;;20.35;42.26;101572.66;4998869;28;45530;-77
2022/07/17 03:29:54;;;;;;;;;4.00;4.00;;;;;20.23;41.84;101557.97;4988769;28;45626;-76
2022/07/17 03:32:20;;;;;;;;;1.00;1.00;;;;;20.21;42.38;101559.88;4995551;28;46356;-76
2022/07/17 03:34:45;;;;;;;;;1.75;0.00;;;;;20.24;42.90;101566.94;4994289;28;45547;-76
2022/07/17 03:37:13;;;;;;;;;2.00;1.00;;;;;20.27;42.46;101579.31;4995892;28;45511;-76
2022/07/17 03:39:38;;;;;;;;;1.00;1.00;;;;;20.15;42.60;101561.97;4995921;28;45479;-76
2022/07/17 03:42:04;;;;;;;;;3.25;1.00;;;;;20.18;42.69;101575.25;4974843;28;46265;-75
2022/07/17 03:44:29;;;;;;;;;1.00;1.00;;;;;20.14;42.63;101573.63;4993075;28;45396;-76
2022/07/17 03:46:55;;;;;;;;;1.00;1.00;;;;;20.18;42.61;101586.00;4995823;28;45408;-77
2022/07/17 03:49:21;;;;;;;;;1.00;1.00;;;;;20.21;42.79;101591.22;4996500;28;45638;-76
2022/07/17 03:51:46;;;;;;;;;1.00;1.00;;;;;20.19;42.42;101590.41;4997973;28;45539;-75
2022/07/17 03:54:12;;;;;;;;;0.00;0.00;;;;;20.12;42.77;101581.75;4995136;28;45541;-76
2022/07/17 03:56:37;;;;;;;;;1.00;1.00;;;;;20.14;42.66;101573.63;4994917;28;45494;-76
2022/07/17 03:59:03;;;;;;;;;0.00;0.00;;;;;20.18;42.59;101586.00;4995924;28;45427;-76
2022/07/17 04:01:29;;;;;;;;;1.00;1.00;;;;;20.20;42.82;101589.47;4988582;28;45405;-75
2022/07/17 04:03:55;;;;;;;;;1.00;1.00;;;;;20.14;42.43;101579.00;4998077;28;45396;-75
2022/07/17 04:06:20;;;;;;;;;2.00;0.00;;;;;20.21;42.41;101580.50;4996220;28;45405;-76
2022/07/17 04:08:45;;;;;;;;;1.00;1.00;;;;;20.25;42.47;101576.69;4979773;28;45445;-76
2022/07/17 04:11:11;;;;;;;;;2.00;1.00;;;;;20.26;42.88;101565.03;4996261;28;45499;-76
2022/07/17 04:13:37;;;;;;;;;1.00;1.00;;;;;20.32;42.34;101580.00;4978468;28;45539;-75
2022/07/17 04:16:02;;;;;;;;;1.00;1.00;;;;;20.32;42.49;101575.50;4994375;28;45341;-75
2022/07/17 04:18:31;;;;;;;;;5.00;2.25;;;;;20.44;42.25;101587.50;4996552;28;45785;-76
2022/07/17 04:20:59;;;;;;;;;1.50;0.50;;;;;20.64;41.76;101583.03;4995754;28;48359;-77
2022/07/17 04:23:26;;;;;;;;;2.00;1.75;;;;;20.86;41.69;101599.03;4993501;28;45412;-75
2022/07/17 04:25:52;;;;;;;;;1.75;1.75;;;;;20.86;41.38;101593.66;4998385;28;45408;-76
2022/07/17 04:28:17;;;;;;;;;0.00;0.00;;;;;20.92;41.54;101605.00;4987638;28;45385;-77
2022/07/17 04:30:42;;;;;;;;;1.50;1.00;;;;;20.99;41.26;101610.06;4979535;28;46536;-76
2022/07/17 04:33:08;;;;;;;;;0.75;0.75;;;;;21.19;40.83;101607.28;4996771;28;45364;-76
2022/07/17 04:35:34;;;;;;;;;1.00;1.00;;;;;21.54;40.41;101611.91;4995856;28;45469;-77
2022/07/17 04:37:59;;;;;;;;;1.00;1.00;;;;;21.75;39.95;101605.44;4982420;28;45595;-76
2022/07/17 04:40:25;;;;;;;;;3.00;1.25;;;;;22.17;39.27;101609.56;4995828;28;46200;-76
2022/07/17 04:42:50;;;;;;;;;3.00;2.00;;;;;22.40;38.60;101590.50;4995933;28;45377;-77
2022/07/17 04:45:16;;;;;;;;;1.00;1.00;;;;;22.83;38.45;101610.53;4977544;28;45317;-77
2022/07/17 04:47:41;;;;;;;;;1.50;1.50;;;;;23.09;37.67;101615.44;4986453;28;45495;-77
2022/07/17 04:50:08;;;;;;;;;0.00;0.00;;;;;23.45;37.23;101619.72;4987948;28;46117;-76
2022/07/17 04:52:34;;;;;;;;;1.00;1.00;;;;;23.85;36.30;101629.06;4974698;28;45437;-76
2022/07/17 04:54:59;;;;;;;;;0.00;0.00;;;;;24.24;35.69;101629.47;4975855;28;45379;-76
2022/07/17 04:57:24;;;;;;;;;1.75;1.75;;;;;24.59;35.38;101634.56;4975914;28;45519;-77
2022/07/17 04:59:50;;;;;;;;;1.00;1.00;;;;;24.90;34.34;101622.66;4988804;28;45522;-75
2022/07/17 05:02:15;;;;;;;;;2.25;1.00;;;;;25.10;34.46;101620.50;4986365;28;45404;-77
2022/07/17 05:04:41;;;;;;;;;3.25;1.00;;;;;25.15;34.37;101627.34;4976268;28;45482;-77
2022/07/17 05:07:06;;;;;;;;;2.25;1.25;;;;;25.25;33.56;101595.16;4982557;28;45440;-77
2022/07/17 05:09:32;;;;;;;;;2.75;2.00;;;;;25.67;33.26;101625.75;4994523;28;45451;-77
2022/07/17 05:11:57;;;;;;;;;6.25;3.25;;;;;25.87;33.24;101610.00;4995858;28;45377;-76
2022/07/17 05:14:22;;;;;;;;;2.75;2.75;;;;;26.26;32.73;101620.94;4994790;28;45385;-76
2022/07/17 05:16:48;;;;;;;;;3.25;3.25;;;;;26.47;32.31;101623.97;4995841;28;45361;-76
2022/07/17 05:19:13;;;;;;;;;6.25;6.25;;;;;26.76;31.95;101630.03;4994877;28;46580;-76
2022/07/17 05:21:38;;;;;;;;;4.25;3.00;;;;;27.00;31.18;101630.09;4989315;28;45508;-76
2022/07/17 05:24:04;;;;;;;;;3.00;3.00;;;;;27.15;31.15;101619.09;4975781;28;45405;-75
2022/07/17 05:26:29;;;;;;;;;5.00;5.00;;;;;27.63;30.84;101630.88;4991359;28;45679;-76
2022/07/17 05:28:55;;;;;;;;;4.50;3.25;;;;;27.97;30.22;101630.19;4990078;28;45501;-77
2022/07/17 05:31:20;;;;;;;;;4.00;3.00;;;;;28.23;29.44;101630.84;4988560;28;45432;-77
2022/07/17 05:33:45;;;;;;;;;3.75;3.50;;;;;28.39;29.12;101633.22;4984666;28;45367;-76
2022/07/17 05:36:11;;;;;;;;;8.00;3.00;;;;;28.71;28.64;101630.69;4995615;28;45510;-76
2022/07/17 05:38:37;;;;;;;;;4.25;3.50;;;;;29.02;28.13;101638.22;4994549;28;46482;-77
2022/07/17 05:41:03;;;;;;;;;3.00;3.00;;;;;29.37;27.79;101634.47;4976357;28;45492;-78
2022/07/17 05:43:29;;;;;;;;;3.00;2.00;;;;;29.82;27.88;101628.00;4985403;28;45522;-76
2022/07/17 05:45:57;;;;;;;;;2.00;2.00;;;;;29.98;27.04;101613.94;4987451;28;45426;-78
2022/07/17 05:48:23;;;;;;;;;3.75;3.75;;;;;30.26;26.79;101636.91;4995122;28;46282;-77
2022/07/17 05:50:49;;;;;;;;;2.00;2.00;;;;;30.55;26.64;101626.22;4974194;28;45399;-76
2022/07/17 05:53:14;;;;;;;;;0.00;0.00;;;;;30.90;26.49;101634.94;4981800;28;45448;-76
2022/07/17 05:55:40;;;;;;;;;1.00;1.00;;;;;31.08;25.71;101621.53;4985571;28;45575;-77
2022/07/17 05:58:06;;;;;;;;;3.50;2.50;;;;;31.38;25.60;101636.97;4989989;28;45377;-77
2022/07/17 06:00:32;;;;;;;;;1.00;1.00;;;;;31.54;25.04;101620.03;4985953;28;45402;-77
2022/07/17 06:02:57;;;;;;;;;1.00;1.00;;;;;31.85;24.91;101625.38;4994720;28;45504;-77
2022/07/17 06:05:23;;;;;;;;;1.00;1.00;;;;;31.95;24.88;101631.69;4984825;28;45495;-77
2022/07/17 06:07:48;;;;;;;;;1.00;1.00;;;;;32.23;24.66;101629.97;4983640;28;45600;-77
2022/07/17 06:10:13;;;;;;;;;3.00;1.50;;;;;32.45;23.79;101633.34;4984105;28;45677;-77
2022/07/17 06:12:39;;;;;;;;;3.25;1.25;;;;;32.66;23.42;101627.69;4993922;28;45373;-77
2022/07/17 06:15:04;;;;;;;;;3.50;2.25;;;;;32.83;23.50;101620.53;4994404;28;45504;-77
2022/07/17 06:17:30;;;;;;;;;1.00;1.00;;;;;33.16;22.79;101622.78;4994181;28;46021;-76
2022/07/17 06:19:55;;;;;;;;;1.50;1.50;;;;;33.38;23.30;101616.91;4984775;28;45452;-77
2022/07/17 06:22:21;;;;;;;;;3.00;2.00;;;;;33.62;22.84;101627.25;4977902;28;45429;-76
2022/07/17 06:24:47;;;;;;;;;3.25;2.00;;;;;33.82;22.51;101633.44;4974455;28;45569;-77
2022/07/17 06:27:12;;;;;;;;;1.00;1.00;;;;;33.77;22.87;101635.81;4974863;28;45338;-77
2022/07/17 06:29:38;;;;;;;;;1.25;1.25;;;;;33.88;22.38;101633.84;4974929;28;45376;-78
2022/07/17 06:32:05;;;;;;;;;3.00;2.00;;;;;33.89;21.78;101627.31;4982347;28;45712;-78
2022/07/17 06:34:31;;;;;;;;;3.00;3.00;;;;;34.09;22.18;101628.88;4995348;28;45442;-76
2022/07/17 06:36:56;;;;;;;;;4.00;2.00;;;;;33.89;21.58;101639.16;4984419;28;46093;-77
2022/07/17 06:39:21;;;;;;;;;2.00;2.00;;;;;33.91;22.38;101630.78;4975921;28;45419;-76
2022/07/17 06:41:47;;;;;;;;;3.00;2.00;;;;;33.92;21.93;101635.22;4980951;28;45468;-76
2022/07/17 06:44:12;;;;;;;;;3.75;3.75;;;;;33.93;22.44;101620.50;4986194;28;45578;-77
2022/07/17 06:46:38;;;;;;;;;2.00;2.00;;;;;34.00;22.41;101625.19;4989943;28;46193;-76
2022/07/17 06:49:03;;;;;;;;;3.00;2.00;;;;;34.18;22.05;101624.31;4993306;28;45527;-78
2022/07/17 06:51:29;;;;;;;;;1.25;1.25;;;;;33.76;21.83;101620.38;4993309;28;45553;-77
2022/07/17 06:53:54;;;;;;;;;2.00;2.00;;;;;33.57;22.21;101602.22;4993364;28;45365;-78
2022/07/17 06:56:19;;;;;;;;;1.75;1.75;;;;;33.59;22.04;101611.13;4980439;28;46665;-77
2022/07/17 06:58:45;;;;;;;;;2.50;1.00;;;;;33.49;22.51;101614.97;4990210;28;45538;-76
2022/07/17 07:01:10;;;;;;;;;3.00;3.00;;;;;33.15;21.82;101630.16;4993584;28;45400;-77
2022/07/17 07:03:37;;;;;;;;;1.50;1.50;;;;;33.06;22.23;101620.13;4983618;28;45369;-77
2022/07/17 07:06:02;;;;;;;;;1.00;1.00;;;;;33.17;22.39;101630.00;4985855;28;46098;-76
2022/07/17 07:08:27;;;;;;;;;1.00;1.00;;;;;33.89;22.09;101635.53;4991653;28;45393;-77
2022/07/17 07:10:53;;;;;;;;;0.00;0.00;;;;;34.02;22.40;101627.78;4978235;28;45381;-77
2022/07/17 07:13:18;;;;;;;;;1.00;1.00;;;;;34.46;20.69;101622.25;4994969;28;45708;-78
2022/07/17 07:15:44;;;;;;;;;0.25;0.25;;;;;34.43;20.16;101635.47;4994538;28;45516;-78
2022/07/17 07:18:09;;;;;;;;;1.00;1.00;;;;;34.17;20.99;101608.88;4990030;28;45433;-77
2022/07/17 07:20:34;;;;;;;;;1.00;1.00;;;;;34.28;21.39;101638.78;4987377;28;45383;-77
2022/07/17 07:23:00;;;;;;;;;1.00;1.00;;;;;34.32;20.77;101636.59;4995033;28;45532;-77
2022/07/17 07:25:25;;;;;;;;;1.75;1.75;;;;;33.92;21.69;101640.72;4984155;28;45383;-77
2022/07/17 07:27:51;;;;;;;;;1.50;0.75;;;;;33.88;20.72;101598.22;4989383;28;45447;-76
2022/07/17 07:30:17;;;;;;;;;2.50;1.00;;;;;33.96;21.95;101640.22;4977312;28;45538;-76
2022/07/17 07:32:42;;;;;;;;;1.00;1.00;;;;;33.71;21.29;101636.41;4978875;28;45535;-76
2022/07/17 07:35:08;;;;;;;;;3.00;1.75;;;;;33.76;21.86;101628.59;4977880;28;47066;-77
2022/07/17 07:37:34;;;;;;;;;0.25;0.00;;;;;33.73;21.62;101628.91;4996553;28;45488;-77
2022/07/17 07:40:00;;;;;;;;;0.00;0.00;;;;;33.75;22.17;101629.59;4997146;28;45493;-76
2022/07/17 07:42:26;;;;;;;;;1.00;1.00;;;;;34.06;22.63;101620.06;4994957;28;45668;-76
2022/07/17 07:44:51;;;;;;;;;2.00;2.00;;;;;33.73;21.13;101628.91;4960579;28;45331;-76
2022/07/17 07:47:17;;;;;;;;;1.00;1.00;;;;;33.56;21.38;101611.44;4991525;28;45497;-76
2022/07/17 07:49:42;;;;;;;;;0.75;0.75;;;;;33.58;21.58;101614.00;4984030;28;45445;-77
2022/07/17 07:52:07;;;;;;;;;2.25;1.50;;;;;33.56;22.15;101624.28;4986731;28;45409;-77
2022/07/17 07:54:34;;;;;;;;;1.00;1.00;;;;;33.76;22.01;101617.63;4988872;28;46090;-77
2022/07/17 07:57:00;;;;;;;;;2.75;2.75;;;;;34.09;22.05;101625.25;4988531;28;45314;-76
2022/07/17 07:59:26;;;;;;;;;2.75;1.75;;;;;34.00;20.71;101635.31;4989640;28;45388;-76
2022/07/17 08:01:51;;;;;;;;;0.25;0.25;;;;;34.35;21.50;101617.91;4989605;28;45535;-76
2022/07/17 08:04:17;;;;;;;;;1.00;1.00;;;;;34.49;20.88;101619.19;4958881;28;46688;-77
2022/07/17 08:06:42;;;;;;;;;3.00;2.50;;;;;34.47;20.67;101615.75;4976016;28;45579;-77
2022/07/17 08:09:08;;;;;;;;;2.00;2.00;;;;;34.42;20.24;101631.88;4980465;28;45416;-76
2022/07/17 08:11:33;;;;;;;;;2.50;2.50;;;;;34.02;21.11;101614.06;4994424;28;45419;-76
2022/07/17 08:14:00;;;;;;;;;2.25;2.25;;;;;33.85;21.33;101636.91;4976720;28;45490;-78
2022/07/17 08:16:25;;;;;;;;;0.00;0.00;;;;;33.77;21.07;101623.97;4991043;28;45448;-77
2022/07/17 08:18:50;;;;;;;;;2.00;2.00;;;;;34.07;21.22;101625.41;4986817;28;45554;-76
2022/07/17 08:21:16;;;;;;;;;3.00;1.25;;;;;33.92;21.40;101621.53;4992956;28;45387;-78
2022/07/17 08:23:41;;;;;;;;;3.00;1.50;;;;;34.08;21.67;101624.38;4986134;28;45517;-78
2022/07/17 08:26:07;;;;;;;;;3.25;2.00;;;;;34.13;21.27;101626.66;4995412;28;45526;-75
2022/07/17 08:28:32;;;;;;;;;1.75;1.75;;;;;34.22;20.84;101619.34;4995605;28;45676;-76
2022/07/17 08:30:58;;;;;;;;;0.75;0.75;;;;;34.93;21.41;101626.47;4993623;28;45365;-76
2022/07/17 08:33:23;;;;;;;;;1.00;1.00;;;;;34.84;20.65;101625.56;4974330;28;46371;-75
2022/07/17 08:35:48;;;;;;;;;2.00;2.00;;;;;34.81;21.93;101611.31;4995186;28;45392;-75
2022/07/17 08:38:14;;;;;;;;;1.75;1.75;;;;;35.14;21.37;101623.25;4990716;28;45443;-76
2022/07/17 08:40:43;;;;;;;;;3.00;3.00;;;;;35.53;19.90;101606.19;4994500;28;45367;-77
2022/07/17 08:43:09;;;;;;;;;0.25;0.25;;;;;35.74;20.58;101624.94;4991128;28;45463;-75
2022/07/17 08:45:35;;;;;;;;;2.00;1.75;;;;;35.50;19.81;101622.16;4983810;28;45407;-76
2022/07/17 08:48:01;;;;;;;;;2.00;2.00;;;;;35.17;19.71;101622.94;4991315;28;45506;-76
2022/07/17 08:50:30;;;;;;;;;3.50;2.00;;;;;35.09;20.20;101622.91;4985587;28;45607;-76
2022/07/17 08:52:55;;;;;;;;;1.00;1.00;;;;;35.30;19.92;101621.63;4994435;28;45504;-75
2022/07/17 08:55:22;;;;;;;;;1.00;1.00;;;;;35.68;19.29;101619.25;4991497;28;45427;-75
2022/07/17 08:57:47;;;;;;;;;3.75;3.75;;;;;36.26;19.85;101622.81;4962140;28;45461;-76
2022/07/17 09:00:16;;;;;;;;;5.75;5.50;;;;;36.36;18.52;101623.53;4986952;28;45638;-75
2022/07/17 09:02:53;;;;;;;;;3.75;1.00;;;;;36.13;19.36;101619.78;4967678;28;46004;-76
2022/07/17 09:05:23;;;;;;;;;2.75;2.75;;;;;36.34;18.58;101619.25;4987549;28;45661;-76
2022/07/17 09:07:49;;;;;;;;;3.75;2.75;;;;;35.70;18.79;101628.19;4984592;28;45572;-75
2022/07/17 09:10:15;;;;;;;;;1.25;1.25;;;;;35.21;20.33;101612.44;4993371;28;45554;-75
2022/07/17 09:12:41;;;;;;;;;8.00;6.00;;;;;35.30;19.47;101622.47;4993224;28;46027;-75
2022/07/17 09:15:19;;;;;;;;;2.00;2.00;;;;;35.69;19.81;101620.97;4991798;28;45581;-75
2022/07/17 09:17:50;;;;;;;;;2.25;1.75;;;;;35.44;20.14;101622.84;4981793;28;45301;-75
2022/07/17 09:20:16;;;;;;;;;4.50;3.25;;;;;35.57;18.71;101628.69;4988154;28;45495;-75
2022/07/17 09:22:42;;;;;;;;;3.25;2.00;;;;;35.45;19.74;101608.06;4988783;28;46000;-75
2022/07/17 09:25:08;;;;;;;;;3.25;3.25;;;;;35.76;19.53;101589.03;4978759;28;45399;-76
2022/07/17 09:27:34;;;;;;;;;1.00;1.00;;;;;35.95;18.62;101625.47;4991195;28;45384;-75
2022/07/17 09:30:06;;;;;;;;;2.50;2.50;;;;;36.07;19.20;101618.56;4983292;28;45463;-75
2022/07/17 09:32:37;;;;;;;;;3.50;3.50;;;;;36.72;19.20;101619.47;4990110;28;45669;-76
2022/07/17 09:35:05;;;;;;;;;3.00;3.00;;;;;36.63;18.54;101618.63;4969958;28;45567;-77
2022/07/17 09:37:32;;;;;;;;;3.75;3.75;;;;;36.99;18.28;101624.53;4989792;28;45435;-78
2022/07/17 09:39:58;;;;;;;;;2.50;2.50;;;;;36.85;18.60;101617.00;4993499;28;45518;-78
2022/07/17 09:42:28;;;;;;;;;2.00;2.00;;;;;36.63;18.37;101630.50;4988905;28;45410;-77
2022/07/17 09:45:03;;;;;;;;;2.25;2.25;;;;;36.00;17.78;101623.94;4996652;28;45459;-76
2022/07/17 09:47:30;;;;;;;;;3.25;3.25;;;;;35.90;18.96;101624.09;4979043;28;45395;-77
2022/07/17 09:49:57;;;;;;;;;1.25;1.25;;;;;35.83;18.79;101623.06;4992242;28;45527;-77
2022/07/17 09:52:26;;;;;;;;;2.25;1.25;;;;;35.75;19.03;101620.28;4993369;28;46003;-77
2022/07/17 09:54:54;;;;;;;;;1.25;1.25;;;;;35.47;18.45;101612.38;4988496;28;45578;-76
2022/07/17 09:57:24;;;;;;;;;2.25;2.25;;;;;34.78;18.06;101620.72;4978240;28;45595;-77
2022/07/17 09:59:50;;;;;;;;;1.50;1.50;;;;;34.29;19.01;101623.22;4978748;28;45443;-78
2022/07/17 10:02:16;;;;;;;;;0.00;0.00;;;;;34.22;19.91;101611.13;4979724;28;45483;-77
2022/07/17 10:04:42;;;;;;;;;0.50;0.50;;;;;34.17;20.49;101625.31;4993891;28;45459;-76
2022/07/17 10:07:08;;;;;;;;;2.00;2.00;;;;;34.17;19.40;101628.91;4991791;28;45687;-76
2022/07/17 10:09:35;;;;;;;;;1.25;1.25;;;;;33.65;19.73;101632.41;4985551;28;45820;-76
2022/07/17 10:12:01;;;;;;;;;1.00;1.00;;;;;33.66;19.65;101636.00;4978126;28;45480;-78
2022/07/17 10:14:27;;;;;;;;;0.75;0.75;;;;;33.96;20.03;101629.25;4977166;28;45449;-77
2022/07/17 10:16:52;;;;;;;;;3.00;1.75;;;;;34.32;20.33;101622.88;4987458;28;45418;-77
2022/07/17 10:19:19;;;;;;;;;2.00;2.00;;;;;34.75;19.75;101618.28;4981315;28;46571;-78
2022/07/17 10:21:59;;;;;;;;;3.00;3.00;;;;;34.79;19.27;101607.88;4988900;28;45443;-77
2022/07/17 10:24:26;;;;;;;;;2.00;2.00;;;;;34.90;18.61;101624.03;4960495;28;45926;-77
2022/07/17 10:26:52;;;;;;;;;0.25;0.00;;;;;35.41;20.25;101626.81;4963412;28;45749;-77
2022/07/17 10:29:34;;;;;;;;;3.00;2.75;;;;;36.15;19.63;101626.81;4983518;28;45530;-76
2022/07/17 10:32:03;;;;;;;;;1.00;1.00;;;;;36.61;18.32;101628.97;4982326;28;45983;-77
2022/07/17 10:34:52;;;;;;;;;2.00;1.00;;;;;36.64;17.18;101634.97;4986629;28;45489;-77
2022/07/17 10:37:34;;;;;;;;;2.75;1.75;;;;;37.07;18.19;101631.88;4982946;28;45488;-77
2022/07/17 10:40:04;;;;;;;;;3.75;2.50;;;;;37.69;17.31;101635.63;4984919;28;45551;-76
2022/07/17 10:42:46;;;;;;;;;1.00;1.00;;;;;38.17;17.32;101638.16;4988436;28;46341;-78
2022/07/17 10:45:21;;;;;;;;;3.00;3.00;;;;;38.46;16.02;101633.72;4991964;28;46055;-77
2022/07/17 10:47:51;;;;;;;;;2.75;2.75;;;;;38.35;15.79;101629.53;4992235;28;45561;-77
2022/07/17 10:50:20;;;;;;;;;3.00;3.00;;;;;38.36;16.24;101625.75;4995155;28;45503;-78
2022/07/17 10:53:04;;;;;;;;;3.25;2.00;;;;;37.99;15.74;101609.03;4983000;28;46455;-78
2022/07/17 10:55:30;;;;;;;;;2.00;2.00;;;;;38.54;17.13;101630.88;4975819;28;45487;-78
2022/07/17 10:57:56;;;;;;;;;3.50;3.50;;;;;38.78;15.58;101634.41;4996245;28;45306;-77
2022/07/17 11:00:22;;;;;;;;;2.00;1.00;;;;;38.74;15.49;101607.19;4971358;28;45412;-76
2022/07/17 11:02:47;;;;;;;;;3.25;2.00;;;;;38.22;15.62;101605.38;4980319;28;46295;-78
2022/07/17 11:05:15;;;;;;;;;1.50;1.50;;;;;38.10;15.54;101629.78;4966411;28;45436;-76
2022/07/17 11:07:58;;;;;;;;;2.25;2.25;;;;;37.50;15.75;101625.94;4989433;28;45474;-76
2022/07/17 11:10:27;;;;;;;;;1.00;1.00;;;;;36.89;16.07;101626.63;4988339;28;45376;-76
2022/07/17 11:12:55;;;;;;;;;2.00;2.00;;;;;36.98;16.41;101613.69;4983432;28;46067;-78
2022/07/17 11:15:22;;;;;;;;;0.00;0.00;;;;;37.59;16.47;101608.31;4981344;28;45329;-77
2022/07/17 11:17:48;;;;;;;;;0.75;0.75;;;;;38.03;15.92;101610.34;4993267;28;45376;-77
2022/07/17 11:20:15;;;;;;;;;2.50;1.00;;;;;38.11;15.21;101619.59;4996179;28;44996;-76